sensor_id;sensor_type;location;lat;lon;timestamp;pressure;altitude;pressure_sealevel;temperature;humidity
73341;BME280;61578;52.002;5.468;2024-02-15T00:00:03;101609.06;;;14.53;89.37
73341;BME280;61578;52.002;5.468;2024-02-15T00:00:37;101598.56;;;14.50;89.09
73341;BME280;61578;52.002;5.468;2024-02-15T00:01:08;101604.56;;;14.53;89.25
73341;BME280;61578;52.002;5.468;2024-02-15T00:01:39;101610.78;;;14.54;89.25
73341;BME280;61578;52.002;5.468;2024-02-15T00:02:10;101595.38;;;14.45;89.39
73341;BME280;61578;52.002;5.468;2024-02-15T00:02:41;101610.03;;;14.52;89.37
73341;BME280;61578;52.002;5.468;2024-02-15T00:03:13;101608.22;;;14.52;89.44
73341;BME280;61578;52.002;5.468;2024-02-15T00:03:44;101610.13;;;14.50;89.30
73341;BME280;61578;52.002;5.468;2024-02-15T00:04:14;101609.06;;;14.53;89.23
73341;BME280;61578;52.002;5.468;2024-02-15T00:04:47;101607.44;;;14.50;89.17
73341;BME280;61578;52.002;5.468;2024-02-15T00:05:18;101605.53;;;14.52;89.35
73341;BME280;61578;52.002;5.468;2024-02-15T00:05:49;101609.94;;;14.53;89.13
73341;BME280;61578;52.002;5.468;2024-02-15T00:06:20;101606.41;;;14.53;89.18
73341;BME280;61578;52.002;5.468;2024-02-15T00:06:51;101609.94;;;14.53;89.00
73341;BME280;61578;52.002;5.468;2024-02-15T00:07:21;101600.28;;;14.51;89.35
73341;BME280;61578;52.002;5.468;2024-02-15T00:07:52;101607.16;;;14.55;89.17
73341;BME280;61578;52.002;5.468;2024-02-15T00:08:23;101608.97;;;14.54;89.32
73341;BME280;61578;52.002;5.468;2024-02-15T00:08:55;101609.81;;;14.55;89.03
73341;BME280;61578;52.002;5.468;2024-02-15T00:09:25;101571.06;;;14.35;89.00
73341;BME280;61578;52.002;5.468;2024-02-15T00:09:56;101594.00;;;14.52;89.24
73341;BME280;61578;52.002;5.468;2024-02-15T00:10:29;101601.81;;;14.55;89.24
73341;BME280;61578;52.002;5.468;2024-02-15T00:11:00;101609.06;;;14.53;88.93
73341;BME280;61578;52.002;5.468;2024-02-15T00:11:31;101610.69;;;14.55;89.09
73341;BME280;61578;52.002;5.468;2024-02-15T00:12:02;101615.16;;;14.55;89.15
73341;BME280;61578;52.002;5.468;2024-02-15T00:12:33;101607.88;;;14.57;89.21
73341;BME280;61578;52.002;5.468;2024-02-15T00:13:04;101577.84;;;14.41;89.19
73341;BME280;61578;52.002;5.468;2024-02-15T00:13:36;101616.13;;;14.54;89.17
73341;BME280;61578;52.002;5.468;2024-02-15T00:14:07;101603.63;;;14.54;89.38
73341;BME280;61578;52.002;5.468;2024-02-15T00:14:38;101599.34;;;14.52;89.23
73341;BME280;61578;52.002;5.468;2024-02-15T00:15:09;101603.50;;;14.56;89.17
73341;BME280;61578;52.002;5.468;2024-02-15T00:15:41;101604.56;;;14.53;89.09
73341;BME280;61578;52.002;5.468;2024-02-15T00:16:14;101604.69;;;14.52;89.41
73341;BME280;61578;52.002;5.468;2024-02-15T00:16:45;101594.09;;;14.50;89.68
73341;BME280;61578;52.002;5.468;2024-02-15T00:17:16;101601.81;;;14.55;89.72
73341;BME280;61578;52.002;5.468;2024-02-15T00:17:48;101606.06;;;14.57;89.41
73341;BME280;61578;52.002;5.468;2024-02-15T00:18:19;101603.50;;;14.56;89.12
73341;BME280;61578;52.002;5.468;2024-02-15T00:18:50;101597.31;;;14.55;89.22
73341;BME280;61578;52.002;5.468;2024-02-15T00:19:20;101600.09;;;14.54;89.34
73341;BME280;61578;52.002;5.468;2024-02-15T00:19:52;101601.91;;;14.53;89.17
73341;BME280;61578;52.002;5.468;2024-02-15T00:20:22;101600.28;;;14.51;89.43
73341;BME280;61578;52.002;5.468;2024-02-15T00:20:53;101598.38;;;14.53;89.27
73341;BME280;61578;52.002;5.468;2024-02-15T00:21:24;101603.91;;;14.50;89.61
73341;BME280;61578;52.002;5.468;2024-02-15T00:21:56;101595.91;;;14.50;89.34
73341;BME280;61578;52.002;5.468;2024-02-15T00:22:27;101594.53;;;14.44;89.61
73341;BME280;61578;52.002;5.468;2024-02-15T00:22:57;101600.19;;;14.52;90.00
73341;BME280;61578;52.002;5.468;2024-02-15T00:23:28;101604.03;;;14.48;89.83
73341;BME280;61578;52.002;5.468;2024-02-15T00:23:59;101557.34;;;14.27;89.41
73341;BME280;61578;52.002;5.468;2024-02-15T00:24:30;101597.63;;;14.51;89.70
73341;BME280;61578;52.002;5.468;2024-02-15T00:25:01;101599.34;;;14.52;89.60
73341;BME280;61578;52.002;5.468;2024-02-15T00:25:33;101593.22;;;14.50;89.83
73341;BME280;61578;52.002;5.468;2024-02-15T00:26:03;101597.53;;;14.52;89.86
73341;BME280;61578;52.002;5.468;2024-02-15T00:26:34;101603.63;;;14.54;89.47
73341;BME280;61578;52.002;5.468;2024-02-15T00:27:05;101594.75;;;14.54;89.38
73341;BME280;61578;52.002;5.468;2024-02-15T00:27:36;101591.41;;;14.50;89.11
73341;BME280;61578;52.002;5.468;2024-02-15T00:28:07;101599.34;;;14.52;89.33
73341;BME280;61578;52.002;5.468;2024-02-15T00:28:38;101599.34;;;14.52;89.28
73341;BME280;61578;52.002;5.468;2024-02-15T00:29:11;101602.00;;;14.52;89.34
73341;BME280;61578;52.002;5.468;2024-02-15T00:29:42;101590.25;;;14.54;89.28
73341;BME280;61578;52.002;5.468;2024-02-15T00:30:13;101594.94;;;14.51;89.29
73341;BME280;61578;52.002;5.468;2024-02-15T00:30:44;101605.44;;;14.54;89.03
73341;BME280;61578;52.002;5.468;2024-02-15T00:31:15;101596.47;;;14.55;88.93
73341;BME280;61578;52.002;5.468;2024-02-15T00:31:45;101595.06;;;14.49;89.20
73341;BME280;61578;52.002;5.468;2024-02-15T00:32:17;101592.56;;;14.46;89.23
73341;BME280;61578;52.002;5.468;2024-02-15T00:32:48;101595.06;;;14.49;89.34
73341;BME280;61578;52.002;5.468;2024-02-15T00:33:19;101597.63;;;14.51;89.33
73341;BME280;61578;52.002;5.468;2024-02-15T00:33:49;101593.44;;;14.47;89.74
73341;BME280;61578;52.002;5.468;2024-02-15T00:34:20;101596.88;;;14.49;89.75
73341;BME280;61578;52.002;5.468;2024-02-15T00:34:51;101604.69;;;14.52;89.78
73341;BME280;61578;52.002;5.468;2024-02-15T00:35:22;101595.16;;;14.48;89.65
73341;BME280;61578;52.002;5.468;2024-02-15T00:35:53;101607.56;;;14.49;89.33
73341;BME280;61578;52.002;5.468;2024-02-15T00:36:23;101597.91;;;14.46;89.13
73341;BME280;61578;52.002;5.468;2024-02-15T00:36:54;101607.56;;;14.49;89.40
73341;BME280;61578;52.002;5.468;2024-02-15T00:37:25;101596.25;;;14.45;89.35
73341;BME280;61578;52.002;5.468;2024-02-15T00:37:56;101593.56;;;14.45;89.33
73341;BME280;61578;52.002;5.468;2024-02-15T00:38:27;101594.03;;;14.37;89.32
73341;BME280;61578;52.002;5.468;2024-02-15T00:38:58;101599.22;;;14.41;89.20
73341;BME280;61578;52.002;5.468;2024-02-15T00:39:29;101602.84;;;14.40;89.62
73341;BME280;61578;52.002;5.468;2024-02-15T00:40:01;101563.31;;;14.18;89.57
73341;BME280;61578;52.002;5.468;2024-02-15T00:40:34;101566.75;;;14.20;89.71
73341;BME280;61578;52.002;5.468;2024-02-15T00:41:05;101598.34;;;14.40;89.77
73341;BME280;61578;52.002;5.468;2024-02-15T00:41:36;101592.22;;;14.38;89.66
73341;BME280;61578;52.002;5.468;2024-02-15T00:42:06;101597.19;;;14.44;89.92
73341;BME280;61578;52.002;5.468;2024-02-15T00:42:39;101603.50;;;14.43;89.64
73341;BME280;61578;52.002;5.468;2024-02-15T00:43:10;101594.03;;;14.37;90.14
73341;BME280;61578;52.002;5.468;2024-02-15T00:43:40;101600.91;;;14.42;89.95
73341;BME280;61578;52.002;5.468;2024-02-15T00:44:11;101594.88;;;14.38;90.05
73341;BME280;61578;52.002;5.468;2024-02-15T00:44:43;101588.25;;;14.31;90.35
73341;BME280;61578;52.002;5.468;2024-02-15T00:45:14;101594.88;;;14.38;90.28
73341;BME280;61578;52.002;5.468;2024-02-15T00:45:45;101598.16;;;14.43;90.42
73341;BME280;61578;52.002;5.468;2024-02-15T00:46:16;101579.50;;;14.29;90.18
73341;BME280;61578;52.002;5.468;2024-02-15T00:46:47;101609.69;;;14.44;89.98
73341;BME280;61578;52.002;5.468;2024-02-15T00:47:18;101601.69;;;14.44;89.88
73341;BME280;61578;52.002;5.468;2024-02-15T00:47:51;101600.59;;;14.46;89.82
73341;BME280;61578;52.002;5.468;2024-02-15T00:48:22;101604.13;;;14.47;90.02
73341;BME280;61578;52.002;5.468;2024-02-15T00:48:56;101601.44;;;14.47;89.65
73341;BME280;61578;52.002;5.468;2024-02-15T00:49:27;101604.13;;;14.47;89.79
73341;BME280;61578;52.002;5.468;2024-02-15T00:49:58;101602.41;;;14.46;89.88
73341;BME280;61578;52.002;5.468;2024-02-15T00:50:28;101596.09;;;14.47;89.71
73341;BME280;61578;52.002;5.468;2024-02-15T00:50:59;101593.44;;;14.47;90.09
73341;BME280;61578;52.002;5.468;2024-02-15T00:51:30;101597.06;;;14.46;89.85
73341;BME280;61578;52.002;5.468;2024-02-15T00:52:01;101561.66;;;14.29;89.33
73341;BME280;61578;52.002;5.468;2024-02-15T00:52:32;101597.91;;;14.46;89.60
73341;BME280;61578;52.002;5.468;2024-02-15T00:53:04;101591.84;;;14.44;89.97
73341;BME280;61578;52.002;5.468;2024-02-15T00:53:35;101584.91;;;14.42;89.36
73341;BME280;61578;52.002;5.468;2024-02-15T00:54:06;101587.66;;;14.40;89.71
73341;BME280;61578;52.002;5.468;2024-02-15T00:54:37;101593.75;;;14.42;89.76
73341;BME280;61578;52.002;5.468;2024-02-15T00:55:08;101597.19;;;14.44;89.79
73341;BME280;61578;52.002;5.468;2024-02-15T00:55:38;101587.72;;;14.38;89.59
73341;BME280;61578;52.002;5.468;2024-02-15T00:56:09;101590.22;;;14.42;89.68
73341;BME280;61578;52.002;5.468;2024-02-15T00:56:40;101550.63;;;14.21;89.57
73341;BME280;61578;52.002;5.468;2024-02-15T00:57:11;101585.06;;;14.38;89.53
73341;BME280;61578;52.002;5.468;2024-02-15T00:57:41;101596.44;;;14.42;89.94
73341;BME280;61578;52.002;5.468;2024-02-15T00:58:12;101599.31;;;14.39;89.82
73341;BME280;61578;52.002;5.468;2024-02-15T00:58:43;101597.50;;;14.40;90.24
73341;BME280;61578;52.002;5.468;2024-02-15T00:59:14;101589.66;;;14.36;89.89
73341;BME280;61578;52.002;5.468;2024-02-15T00:59:44;101585.94;;;14.39;90.06
73341;BME280;61578;52.002;5.468;2024-02-15T01:00:15;101586.00;;;14.37;89.92
73341;BME280;61578;52.002;5.468;2024-02-15T01:00:48;101585.25;;;14.35;90.38
73341;BME280;61578;52.002;5.468;2024-02-15T01:01:19;101581.00;;;14.33;90.35
73341;BME280;61578;52.002;5.468;2024-02-15T01:01:50;101580.66;;;14.37;90.45
73341;BME280;61578;52.002;5.468;2024-02-15T01:02:20;101586.81;;;14.40;90.55
73341;BME280;61578;52.002;5.468;2024-02-15T01:02:52;101596.44;;;14.42;90.69
73341;BME280;61578;52.002;5.468;2024-02-15T01:03:23;101590.22;;;14.42;90.60
73341;BME280;61578;52.002;5.468;2024-02-15T01:03:54;101588.31;;;14.44;90.35
73341;BME280;61578;52.002;5.468;2024-02-15T01:04:25;101584.47;;;14.48;90.02
73341;BME280;61578;52.002;5.468;2024-02-15T01:04:56;101582.75;;;14.47;90.34
73341;BME280;61578;52.002;5.468;2024-02-15T01:05:28;101584.69;;;14.45;90.04
73341;BME280;61578;52.002;5.468;2024-02-15T01:05:59;101588.09;;;14.47;89.77
73341;BME280;61578;52.002;5.468;2024-02-15T01:06:30;101580.06;;;14.47;90.07
73341;BME280;61578;52.002;5.468;2024-02-15T01:07:00;101590.66;;;14.48;89.92
73341;BME280;61578;52.002;5.468;2024-02-15T01:07:31;101553.72;;;14.28;89.72
73341;BME280;61578;52.002;5.468;2024-02-15T01:08:02;101523.22;;;14.05;89.94
73341;BME280;61578;52.002;5.468;2024-02-15T01:08:34;101552.13;;;14.25;89.92
73341;BME280;61578;52.002;5.468;2024-02-15T01:09:04;101580.59;;;14.39;90.23
73341;BME280;61578;52.002;5.468;2024-02-15T01:09:35;101586.38;;;14.46;90.32
73341;BME280;61578;52.002;5.468;2024-02-15T01:10:06;101581.88;;;14.46;90.17
73341;BME280;61578;52.002;5.468;2024-02-15T01:10:38;101585.13;;;14.51;90.43
73341;BME280;61578;52.002;5.468;2024-02-15T01:11:09;101589.59;;;14.51;90.28
73341;BME280;61578;52.002;5.468;2024-02-15T01:11:40;101582.44;;;14.51;89.94
73341;BME280;61578;52.002;5.468;2024-02-15T01:12:10;101578.91;;;14.51;89.85
73341;BME280;61578;52.002;5.468;2024-02-15T01:12:41;101552.56;;;14.32;90.18
73341;BME280;61578;52.002;5.468;2024-02-15T01:13:12;101576.34;;;14.49;89.88
73341;BME280;61578;52.002;5.468;2024-02-15T01:13:43;101583.31;;;14.52;89.80
73341;BME280;61578;52.002;5.468;2024-02-15T01:14:15;101588.00;;;14.48;90.10
73341;BME280;61578;52.002;5.468;2024-02-15T01:14:48;101577.72;;;14.42;89.92
73341;BME280;61578;52.002;5.468;2024-02-15T01:15:19;101589.69;;;14.49;90.09
73341;BME280;61578;52.002;5.468;2024-02-15T01:15:50;101573.25;;;14.43;89.90
73341;BME280;61578;52.002;5.468;2024-02-15T01:16:21;101581.69;;;14.49;89.71
73341;BME280;61578;52.002;5.468;2024-02-15T01:16:52;101580.94;;;14.47;89.97
73341;BME280;61578;52.002;5.468;2024-02-15T01:17:22;101583.50;;;14.49;90.02
73341;BME280;61578;52.002;5.468;2024-02-15T01:17:53;101539.53;;;14.27;90.08
73341;BME280;61578;52.002;5.468;2024-02-15T01:18:24;101583.59;;;14.47;90.27
73341;BME280;61578;52.002;5.468;2024-02-15T01:18:55;101587.78;;;14.51;90.22
73341;BME280;61578;52.002;5.468;2024-02-15T01:19:26;101580.63;;;14.52;90.11
73341;BME280;61578;52.002;5.468;2024-02-15T01:19:57;101549.25;;;14.28;89.70
73341;BME280;61578;52.002;5.468;2024-02-15T01:20:27;101578.25;;;14.47;89.75
73341;BME280;61578;52.002;5.468;2024-02-15T01:20:58;101587.38;;;14.45;89.99
73341;BME280;61578;52.002;5.468;2024-02-15T01:21:30;101579.88;;;14.50;90.26
73341;BME280;61578;52.002;5.468;2024-02-15T01:22:03;101578.16;;;14.49;90.28
73341;BME280;61578;52.002;5.468;2024-02-15T01:22:34;101582.66;;;14.48;90.42
73341;BME280;61578;52.002;5.468;2024-02-15T01:23:05;101589.59;;;14.51;90.36
73341;BME280;61578;52.002;5.468;2024-02-15T01:23:38;101574.31;;;14.53;90.51
73341;BME280;61578;52.002;5.468;2024-02-15T01:24:09;101590.47;;;14.51;90.22
73341;BME280;61578;52.002;5.468;2024-02-15T01:24:40;101578.16;;;14.49;90.07
73341;BME280;61578;52.002;5.468;2024-02-15T01:25:11;101580.53;;;14.53;89.84
73341;BME280;61578;52.002;5.468;2024-02-15T01:25:42;101588.66;;;14.52;89.80
73341;BME280;61578;52.002;5.468;2024-02-15T01:26:13;101587.88;;;14.50;89.72
73341;BME280;61578;52.002;5.468;2024-02-15T01:26:44;101580.84;;;14.49;89.97
73341;BME280;61578;52.002;5.468;2024-02-15T01:27:18;101580.84;;;14.49;90.33
73341;BME280;61578;52.002;5.468;2024-02-15T01:27:49;101570.34;;;14.46;90.07
73341;BME280;61578;52.002;5.468;2024-02-15T01:28:19;101587.03;;;14.49;89.95
73341;BME280;61578;52.002;5.468;2024-02-15T01:28:50;101552.38;;;14.35;90.38
73341;BME280;61578;52.002;5.468;2024-02-15T01:29:21;101574.22;;;14.54;90.01
73341;BME280;61578;52.002;5.468;2024-02-15T01:29:51;101569.19;;;14.50;90.07
73341;BME280;61578;52.002;5.468;2024-02-15T01:30:22;101535.03;;;14.28;90.01
73341;BME280;61578;52.002;5.468;2024-02-15T01:30:53;101581.28;;;14.55;89.98
73341;BME280;61578;52.002;5.468;2024-02-15T01:31:24;101575.94;;;14.55;89.82
73341;BME280;61578;52.002;5.468;2024-02-15T01:31:55;101578.38;;;14.58;89.81
73341;BME280;61578;52.002;5.468;2024-02-15T01:32:26;101579.56;;;14.54;89.49
73341;BME280;61578;52.002;5.468;2024-02-15T01:32:57;101577.84;;;14.53;89.83
73341;BME280;61578;52.002;5.468;2024-02-15T01:33:28;101578.72;;;14.54;89.81
73341;BME280;61578;52.002;5.468;2024-02-15T01:33:59;101579.56;;;14.54;89.92
73341;BME280;61578;52.002;5.468;2024-02-15T01:34:29;101570.69;;;14.54;89.56
73341;BME280;61578;52.002;5.468;2024-02-15T01:35:00;101574.44;;;14.51;89.42
73341;BME280;61578;52.002;5.468;2024-02-15T01:35:31;101580.44;;;14.55;89.71
73341;BME280;61578;52.002;5.468;2024-02-15T01:36:03;101581.50;;;14.52;89.90
73341;BME280;61578;52.002;5.468;2024-02-15T01:36:34;101578.91;;;14.51;89.59
73341;BME280;61578;52.002;5.468;2024-02-15T01:37:05;101574.53;;;14.50;89.48
73341;BME280;61578;52.002;5.468;2024-02-15T01:37:36;101579.22;;;14.46;89.18
73341;BME280;61578;52.002;5.468;2024-02-15T01:38:07;101582.03;;;14.45;89.64
73341;BME280;61578;52.002;5.468;2024-02-15T01:38:38;101569.63;;;14.44;89.95
73341;BME280;61578;52.002;5.468;2024-02-15T01:39:08;101574.97;;;14.44;90.15
73341;BME280;61578;52.002;5.468;2024-02-15T01:39:40;101574.53;;;14.50;90.13
73341;BME280;61578;52.002;5.468;2024-02-15T01:40:11;101580.84;;;14.49;90.23
73341;BME280;61578;52.002;5.468;2024-02-15T01:40:47;101562.31;;;14.46;90.09
73341;BME280;61578;52.002;5.468;2024-02-15T01:41:18;101572.81;;;14.49;90.13
73341;BME280;61578;52.002;5.468;2024-02-15T01:41:49;101534.94;;;14.29;90.13
73341;BME280;61578;52.002;5.468;2024-02-15T01:42:26;101568.22;;;14.51;89.83
73341;BME280;61578;52.002;5.468;2024-02-15T01:42:56;101572.63;;;14.52;89.98
73341;BME280;61578;52.002;5.468;2024-02-15T01:43:28;101581.38;;;14.54;90.21
73341;BME280;61578;52.002;5.468;2024-02-15T01:43:59;101575.28;;;14.52;89.40
73341;BME280;61578;52.002;5.468;2024-02-15T01:44:30;101569.19;;;14.50;89.59
73341;BME280;61578;52.002;5.468;2024-02-15T01:45:02;101572.06;;;14.47;89.82
73341;BME280;61578;52.002;5.468;2024-02-15T01:45:33;101565.00;;;14.46;89.64
73341;BME280;61578;52.002;5.468;2024-02-15T01:46:10;101541.34;;;14.27;89.83
73341;BME280;61578;52.002;5.468;2024-02-15T01:46:41;101566.94;;;14.44;89.61
73341;BME280;61578;52.002;5.468;2024-02-15T01:47:12;101566.72;;;14.47;89.86
73341;BME280;61578;52.002;5.468;2024-02-15T01:47:43;101573.78;;;14.48;89.85
73341;BME280;61578;52.002;5.468;2024-02-15T01:48:17;101566.09;;;14.43;89.61
73341;BME280;61578;52.002;5.468;2024-02-15T01:48:47;101569.53;;;14.45;89.89
73341;BME280;61578;52.002;5.468;2024-02-15T01:49:19;101572.19;;;14.45;89.91
73341;BME280;61578;52.002;5.468;2024-02-15T01:49:53;101572.06;;;14.47;89.61
73341;BME280;61578;52.002;5.468;2024-02-15T01:50:25;101547.44;;;14.29;89.66
73341;BME280;61578;52.002;5.468;2024-02-15T01:50:57;101567.66;;;14.46;90.11
73341;BME280;61578;52.002;5.468;2024-02-15T01:51:29;101564.28;;;14.44;89.86
73341;BME280;61578;52.002;5.468;2024-02-15T01:52:02;101570.56;;;14.43;89.89
73341;BME280;61578;52.002;5.468;2024-02-15T01:52:40;101570.69;;;14.41;90.00
73341;BME280;61578;52.002;5.468;2024-02-15T01:53:14;101568.66;;;14.45;89.73
73341;BME280;61578;52.002;5.468;2024-02-15T01:53:45;101562.66;;;14.41;89.83
73341;BME280;61578;52.002;5.468;2024-02-15T01:54:16;101572.50;;;14.41;89.48
73341;BME280;61578;52.002;5.468;2024-02-15T01:54:51;101578.69;;;14.41;90.01
73341;BME280;61578;52.002;5.468;2024-02-15T01:55:24;101568.00;;;14.41;89.69
73341;BME280;61578;52.002;5.468;2024-02-15T01:55:56;101569.81;;;14.41;89.81
73341;BME280;61578;52.002;5.468;2024-02-15T01:56:29;101576.88;;;14.42;89.86
73341;BME280;61578;52.002;5.468;2024-02-15T01:57:03;101571.34;;;14.45;90.13
73341;BME280;61578;52.002;5.468;2024-02-15T01:57:37;101567.91;;;14.43;90.19
73341;BME280;61578;52.002;5.468;2024-02-15T01:58:08;101560.66;;;14.45;90.10
73341;BME280;61578;52.002;5.468;2024-02-15T01:58:40;101570.13;;;14.49;90.42
73341;BME280;61578;52.002;5.468;2024-02-15T01:59:15;101570.13;;;14.49;90.05
73341;BME280;61578;52.002;5.468;2024-02-15T01:59:47;101573.56;;;14.51;89.99
73341;BME280;61578;52.002;5.468;2024-02-15T02:00:22;101569.19;;;14.50;89.86
73341;BME280;61578;52.002;5.468;2024-02-15T02:00:56;101533.56;;;14.24;90.06
73341;BME280;61578;52.002;5.468;2024-02-15T02:01:29;101571.00;;;14.49;90.23
73341;BME280;61578;52.002;5.468;2024-02-15T02:02:08;101565.56;;;14.51;90.08
73341;BME280;61578;52.002;5.468;2024-02-15T02:02:45;101558.84;;;14.45;89.92
73341;BME280;61578;52.002;5.468;2024-02-15T02:03:16;101537.50;;;14.31;89.47
73341;BME280;61578;52.002;5.468;2024-02-15T02:03:47;101557.41;;;14.40;89.63
73341;BME280;61578;52.002;5.468;2024-02-15T02:04:18;101570.25;;;14.47;90.11
73341;BME280;61578;52.002;5.468;2024-02-15T02:04:50;101566.72;;;14.47;89.81
73341;BME280;61578;52.002;5.468;2024-02-15T02:05:21;101573.00;;;14.46;89.85
73341;BME280;61578;52.002;5.468;2024-02-15T02:05:55;101571.34;;;14.45;89.96
73341;BME280;61578;52.002;5.468;2024-02-15T02:06:26;101568.00;;;14.41;90.21
73341;BME280;61578;52.002;5.468;2024-02-15T02:06:58;101560.00;;;14.41;90.22
73341;BME280;61578;52.002;5.468;2024-02-15T02:07:29;101561.81;;;14.41;90.28
73341;BME280;61578;52.002;5.468;2024-02-15T02:08:00;101572.28;;;14.44;90.40
73341;BME280;61578;52.002;5.468;2024-02-15T02:08:35;101558.94;;;14.44;90.04
73341;BME280;61578;52.002;5.468;2024-02-15T02:09:07;101560.94;;;14.40;90.17
73341;BME280;61578;52.002;5.468;2024-02-15T02:09:43;101572.91;;;14.47;89.97
73341;BME280;61578;52.002;5.468;2024-02-15T02:10:16;101571.09;;;14.48;89.88
73341;BME280;61578;52.002;5.468;2024-02-15T02:10:47;101558.69;;;14.47;90.07
73341;BME280;61578;52.002;5.468;2024-02-15T02:11:18;101558.84;;;14.45;90.23
73341;BME280;61578;52.002;5.468;2024-02-15T02:11:49;101559.66;;;14.46;90.13
73341;BME280;61578;52.002;5.468;2024-02-15T02:12:21;101555.81;;;14.50;90.00
73341;BME280;61578;52.002;5.468;2024-02-15T02:12:52;101558.59;;;14.48;89.84
73341;BME280;61578;52.002;5.468;2024-02-15T02:13:24;101516.53;;;14.25;89.81
73341;BME280;61578;52.002;5.468;2024-02-15T02:13:55;101556.88;;;14.47;89.70
73341;BME280;61578;52.002;5.468;2024-02-15T02:14:26;101552.63;;;14.45;89.96
73341;BME280;61578;52.002;5.468;2024-02-15T02:14:57;101552.50;;;14.46;89.97
73341;BME280;61578;52.002;5.468;2024-02-15T02:15:28;101557.84;;;14.46;90.03
73341;BME280;61578;52.002;5.468;2024-02-15T02:16:01;101549.81;;;14.46;89.82
73341;BME280;61578;52.002;5.468;2024-02-15T02:16:32;101549.72;;;14.48;90.02
73341;BME280;61578;52.002;5.468;2024-02-15T02:17:15;101549.72;;;14.48;89.83
73341;BME280;61578;52.002;5.468;2024-02-15T02:17:50;101548.88;;;14.47;89.70
73341;BME280;61578;52.002;5.468;2024-02-15T02:18:23;101541.81;;;14.46;89.93
73341;BME280;61578;52.002;5.468;2024-02-15T02:18:55;101550.69;;;14.47;89.87
73341;BME280;61578;52.002;5.468;2024-02-15T02:19:29;101552.63;;;14.45;89.73
73341;BME280;61578;52.002;5.468;2024-02-15T02:20:00;101549.63;;;14.49;89.93
73341;BME280;61578;52.002;5.468;2024-02-15T02:20:30;101547.72;;;14.51;89.61
73341;BME280;61578;52.002;5.468;2024-02-15T02:21:01;101545.13;;;14.50;89.75
73341;BME280;61578;52.002;5.468;2024-02-15T02:21:36;101550.47;;;14.50;89.81
73341;BME280;61578;52.002;5.468;2024-02-15T02:22:10;101552.19;;;14.51;89.84
73341;BME280;61578;52.002;5.468;2024-02-15T02:22:46;101550.59;;;14.48;89.96
73341;BME280;61578;52.002;5.468;2024-02-15T02:23:26;101549.81;;;14.46;89.78
73341;BME280;61578;52.002;5.468;2024-02-15T02:23:58;101535.09;;;14.41;89.87
73341;BME280;61578;52.002;5.468;2024-02-15T02:25:25;101549.09;;;14.44;89.74
73341;BME280;61578;52.002;5.468;2024-02-15T02:25:59;101543.97;;;14.41;89.67
73341;BME280;61578;52.002;5.468;2024-02-15T02:26:30;101545.88;;;14.39;89.39
73341;BME280;61578;52.002;5.468;2024-02-15T02:27:01;101555.78;;;14.37;89.62
73341;BME280;61578;52.002;5.468;2024-02-15T02:27:32;101540.84;;;14.34;89.63
73341;BME280;61578;52.002;5.468;2024-02-15T02:28:03;101546.91;;;14.36;89.74
73341;BME280;61578;52.002;5.468;2024-02-15T02:28:34;101542.66;;;14.34;89.59
73341;BME280;61578;52.002;5.468;2024-02-15T02:29:05;101543.38;;;14.36;90.12
73341;BME280;61578;52.002;5.468;2024-02-15T02:29:35;101538.72;;;14.40;90.03
73341;BME280;61578;52.002;5.468;2024-02-15T02:30:13;101536.91;;;14.40;89.61
73341;BME280;61578;52.002;5.468;2024-02-15T02:30:48;101540.69;;;14.36;89.71
73341;BME280;61578;52.002;5.468;2024-02-15T02:31:19;101523.50;;;14.27;89.88
73341;BME280;61578;52.002;5.468;2024-02-15T02:31:52;101539.75;;;14.37;89.82
73341;BME280;61578;52.002;5.468;2024-02-15T02:32:22;101533.78;;;14.33;89.83
73341;BME280;61578;52.002;5.468;2024-02-15T02:32:53;101542.41;;;14.37;89.64
73341;BME280;61578;52.002;5.468;2024-02-15T02:33:24;101532.69;;;14.36;89.55
73341;BME280;61578;52.002;5.468;2024-02-15T02:33:58;101546.19;;;14.34;89.82
73341;BME280;61578;52.002;5.468;2024-02-15T02:34:29;101531.09;;;14.33;89.82
73341;BME280;61578;52.002;5.468;2024-02-15T02:35:00;101535.50;;;14.34;90.07
73341;BME280;61578;52.002;5.468;2024-02-15T02:35:32;101542.50;;;14.35;89.73
73341;BME280;61578;52.002;5.468;2024-02-15T02:36:03;101546.03;;;14.36;89.66
73341;BME280;61578;52.002;5.468;2024-02-15T02:36:43;101465.13;;;13.96;89.83
73341;BME280;61578;52.002;5.468;2024-02-15T02:37:14;101533.53;;;14.36;89.92
73341;BME280;61578;52.002;5.468;2024-02-15T02:37:45;101534.72;;;14.32;89.34
73341;BME280;61578;52.002;5.468;2024-02-15T02:38:16;101538.38;;;14.31;89.44
73341;BME280;61578;52.002;5.468;2024-02-15T02:38:47;101531.19;;;14.32;89.42
73341;BME280;61578;52.002;5.468;2024-02-15T02:39:21;101538.75;;;14.25;89.04
73341;BME280;61578;52.002;5.468;2024-02-15T02:39:53;101529.16;;;14.23;89.40
73341;BME280;61578;52.002;5.468;2024-02-15T02:40:24;101493.00;;;14.05;89.41
73341;BME280;61578;52.002;5.468;2024-02-15T02:40:55;101538.66;;;14.27;89.46
73341;BME280;61578;52.002;5.468;2024-02-15T02:41:26;101527.56;;;14.20;89.45
73341;BME280;61578;52.002;5.468;2024-02-15T02:41:58;101529.78;;;14.26;89.85
73341;BME280;61578;52.002;5.468;2024-02-15T02:42:29;101522.22;;;14.20;90.05
73341;BME280;61578;52.002;5.468;2024-02-15T02:42:59;101537.19;;;14.23;89.92
73341;BME280;61578;52.002;5.468;2024-02-15T02:43:30;101533.75;;;14.21;89.77
73341;BME280;61578;52.002;5.468;2024-02-15T02:44:01;101536.31;;;14.22;89.20
73341;BME280;61578;52.002;5.468;2024-02-15T02:44:32;101529.47;;;14.18;89.22
73341;BME280;61578;52.002;5.468;2024-02-15T02:45:02;101536.72;;;14.16;88.78
73341;BME280;61578;52.002;5.468;2024-02-15T02:45:35;101534.38;;;14.12;88.99
73341;BME280;61578;52.002;5.468;2024-02-15T02:46:06;101517.28;;;14.02;89.48